Overview Statistics Trail Chart Weather Telemetry Raw packets
 

This is the latest recevied weather packets stored in our database for station/object DL5DI-H. If no packets are shown the sender has not sent any weather packets the latest 10 day(s).

<< 26 27 28 29 30 31 32 >>
Time Temp. Humidity Pressure Rain* Wind** Luminosity Snow
1788305402 15.56° C 82% 1021.9 hPa 0 mm - - -
1788304802 15.56° C 81% 1022.1 hPa 0 mm - - -
1788304201 15.56° C 81% 1022.3 hPa 0 mm - - -
1788303602 15.56° C 81% 1022.2 hPa 0 mm - - -
1788302400 15.56° C 80% 1022.2 hPa 0 mm - - -
1788301801 16.11° C 80% 1022.2 hPa 0 mm - - -
1788301201 16.11° C 79% 1022.1 hPa 0 mm - - -
1788300601 16.11° C 79% 1022.1 hPa 0 mm - - -
1788300001 16.11° C 79% 1022.1 hPa 0 mm - - -
1788299402 16.67° C 78% 1022 hPa 0 mm - - -
1788298804 16.67° C 78% 1022 hPa 0 mm - - -
1788298202 16.67° C 77% 1022.1 hPa 0 mm - - -
1788297601 16.67° C 77% 1022 hPa 0 mm - - -
1788297000 16.67° C 77% 1022 hPa 0 mm - - -
1788296403 17.22° C 76% 1021.9 hPa 0 mm - - -
1788295804 17.78° C 75% 1021.9 hPa 0 mm - - -
1788295200 17.78° C 75% 1021.9 hPa 0 mm - - -
1788294602 17.78° C 75% 1021.9 hPa 0 mm - - -
1788292802 18.33° C 73% 1021.9 hPa 0 mm - - -
1788291001 18.89° C 71% 1021.8 hPa 0 mm - - -
1788289200 20.56° C 66% 1021.6 hPa 0 mm - - -
1788288602 20.56° C 65% 1021.6 hPa 0 mm - - -
1788288002 20.56° C 65% 1021.6 hPa 0 mm - - -
1788286800 21.67° C 62% 1021.4 hPa 0 mm - - -
1788286201 22.22° C 61% 1021.3 hPa 0 mm - - -

* Rain latest hour (hover to see other rain measurements)
** Current wind speed in m/s (hover to see current wind gust speed)